Time;durP1;ratioP1;P1;durP2;ratioP2;P2;SDS_P1;SDS_P2;PMS_P1;PMS_P2;Temp;Humidity;BMP_temperature;BMP_pressure;BME280_temperature;BME280_humidity;BME280_pressure;Samples;Min_cycle;Max_cycle;Signal;HPM_P1;HPM_P2
2022/03/30 00:01:15;;;;;;;35.70;11.07;;;4.50;99.90;;;;;;5036950;28;20206;-81
2022/03/30 00:03:40;;;;;;;38.20;12.17;;;4.60;99.90;;;;;;5037185;28;20545;-81
2022/03/30 00:06:06;;;;;;;32.87;12.00;;;4.60;99.90;;;;;;5036528;28;20220;-80
2022/03/30 00:08:32;;;;;;;38.73;11.60;;;4.50;99.90;;;;;;5037300;28;20270;-81
2022/03/30 00:10:59;;;;;;;38.37;12.70;;;4.60;99.90;;;;;;5037686;28;20317;-81
2022/03/30 00:13:25;;;;;;;36.10;11.47;;;4.60;99.90;;;;;;5037508;28;20175;-81
2022/03/30 00:15:51;;;;;;;31.87;11.30;;;4.50;99.90;;;;;;5037515;28;20185;-80
2022/03/30 00:18:17;;;;;;;36.57;11.20;;;4.40;99.90;;;;;;5036959;28;20204;-81
2022/03/30 00:20:43;;;;;;;34.37;11.33;;;4.50;99.90;;;;;;5037063;28;20641;-81
2022/03/30 00:23:09;;;;;;;33.37;11.10;;;4.50;99.90;;;;;;5036861;28;20197;-81
2022/03/30 00:25:35;;;;;;;34.80;11.83;;;4.50;99.90;;;;;;5036745;28;20220;-81
2022/03/30 00:28:02;;;;;;;34.37;12.07;;;4.50;99.90;;;;;;5037607;28;20190;-81
2022/03/30 00:30:28;;;;;;;30.57;10.77;;;4.40;99.90;;;;;;5037212;28;20263;-80
2022/03/30 00:32:54;;;;;;;30.97;11.17;;;4.30;99.90;;;;;;5036849;28;20180;-81
2022/03/30 00:35:20;;;;;;;31.10;11.20;;;4.30;99.90;;;;;;5038244;28;20182;-81
2022/03/30 00:37:46;;;;;;;37.40;11.87;;;4.30;99.90;;;;;;5037246;28;20315;-81
2022/03/30 00:40:15;;;;;;;36.40;10.73;;;4.20;99.90;;;;;;5038327;28;20231;-80
2022/03/30 00:42:41;;;;;;;23.53;10.07;;;4.10;99.90;;;;;;5036614;28;20685;-81
2022/03/30 00:45:09;;;;;;;33.63;11.50;;;4.10;99.90;;;;;;5037455;28;20179;-81
2022/03/30 00:47:36;;;;;;;38.27;13.20;;;4.10;99.90;;;;;;5037055;28;20174;-81
2022/03/30 00:50:03;;;;;;;28.40;11.53;;;4.20;99.90;;;;;;5035201;28;20244;-81
2022/03/30 00:52:28;;;;;;;36.93;11.23;;;4.10;99.90;;;;;;5032842;28;20213;-81
2022/03/30 00:54:54;;;;;;;32.17;11.97;;;4.10;99.90;;;;;;5034744;28;20181;-81
2022/03/30 00:57:23;;;;;;;33.93;11.93;;;4.20;99.90;;;;;;5038722;28;20579;-81
2022/03/30 00:59:50;;;;;;;37.60;12.57;;;4.10;99.90;;;;;;5038763;28;20281;-81
2022/03/30 01:02:17;;;;;;;33.30;11.47;;;4.10;99.90;;;;;;5037366;28;20282;-81
2022/03/30 01:04:45;;;;;;;36.07;11.80;;;4.10;99.90;;;;;;5037695;28;20178;-81
2022/03/30 01:07:12;;;;;;;46.00;12.90;;;4.00;99.90;;;;;;5038064;28;20178;-81
2022/03/30 01:09:38;;;;;;;34.93;11.77;;;4.00;99.90;;;;;;5038327;28;20205;-81
2022/03/30 01:12:04;;;;;;;38.90;12.03;;;4.00;99.90;;;;;;5037999;28;20170;-81
2022/03/30 01:14:32;;;;;;;37.17;12.50;;;3.90;99.90;;;;;;5037723;28;20240;-81
2022/03/30 01:16:57;;;;;;;40.00;13.33;;;3.80;99.90;;;;;;5037642;28;20174;-81
2022/03/30 01:19:28;;;;;;;36.97;12.83;;;3.80;99.90;;;;;;5037911;28;20197;-80
2022/03/30 01:21:54;;;;;;;38.47;14.10;;;3.80;99.90;;;;;;5043308;28;20605;-80
2022/03/30 01:24:20;;;;;;;38.43;13.03;;;3.90;99.90;;;;;;5043529;28;20231;-80
2022/03/30 01:26:45;;;;;;;41.07;12.70;;;3.80;99.90;;;;;;5043574;28;20269;-80
2022/03/30 01:34:42;;;;;;;33.83;12.53;;;3.80;99.90;;;;;;5045187;28;20168;-80
2022/03/30 01:37:09;;;;;;;42.33;13.37;;;3.80;99.90;;;;;;5044630;28;20453;-80
2022/03/30 01:39:35;;;;;;;39.37;14.17;;;3.80;99.90;;;;;;5042642;28;20228;-80
2022/03/30 01:42:01;;;;;;;27.67;11.47;;;3.80;99.90;;;;;;5042748;28;20200;-80
2022/03/30 01:44:27;;;;;;;41.13;12.47;;;3.70;99.90;;;;;;5043002;28;20181;-80
2022/03/30 01:46:53;;;;;;;41.67;11.30;;;3.60;99.90;;;;;;5042794;28;20181;-80
2022/03/30 01:49:21;;;;;;;37.27;12.93;;;3.70;99.90;;;;;;5042688;28;20194;-80
2022/03/30 01:51:49;;;;;;;41.67;13.00;;;3.70;99.90;;;;;;5042245;28;20166;-80
2022/03/30 01:54:20;;;;;;;38.57;12.93;;;3.60;99.90;;;;;;5042830;28;20174;-80
2022/03/30 01:56:46;;;;;;;35.87;12.77;;;3.50;99.90;;;;;;5041562;28;20180;-80
2022/03/30 01:59:12;;;;;;;51.77;13.63;;;3.40;99.90;;;;;;5043030;28;20194;-80
2022/03/30 02:01:38;;;;;;;44.97;13.30;;;3.40;99.90;;;;;;5042403;28;20204;-80
2022/03/30 02:04:06;;;;;;;35.47;13.67;;;3.50;99.90;;;;;;5043831;28;20205;-80
2022/03/30 02:06:32;;;;;;;47.53;12.57;;;3.50;99.90;;;;;;5042283;28;20713;-80
2022/03/30 02:08:58;;;;;;;40.10;12.97;;;3.50;99.90;;;;;;5041931;28;20233;-80
2022/03/30 02:11:26;;;;;;;36.77;12.47;;;3.50;99.90;;;;;;5040698;28;20184;-80
2022/03/30 02:13:52;;;;;;;35.53;12.93;;;3.40;99.90;;;;;;5039795;28;20562;-81
2022/03/30 02:16:18;;;;;;;35.53;12.63;;;3.30;99.90;;;;;;5039725;28;20188;-81
2022/03/30 02:18:44;;;;;;;36.57;12.90;;;3.30;99.90;;;;;;5039663;28;20196;-81
2022/03/30 02:21:10;;;;;;;40.27;13.07;;;3.20;99.90;;;;;;5044842;28;20217;-80
2022/03/30 02:23:36;;;;;;;34.67;12.73;;;3.20;99.90;;;;;;5045094;28;20239;-80
2022/03/30 02:26:02;;;;;;;37.27;12.33;;;3.20;99.90;;;;;;5044528;28;20205;-80
2022/03/30 02:28:27;;;;;;;34.70;12.23;;;3.10;99.90;;;;;;5044263;28;20241;-80
2022/03/30 02:30:53;;;;;;;36.23;13.13;;;3.20;99.90;;;;;;5044552;28;20205;-80
2022/03/30 02:33:19;;;;;;;38.90;12.73;;;3.20;99.90;;;;;;5045203;28;20189;-80
2022/03/30 02:35:45;;;;;;;42.40;12.90;;;3.30;99.90;;;;;;5046978;28;20292;-80
2022/03/30 02:38:10;;;;;;;34.73;11.80;;;3.20;99.90;;;;;;5044885;28;20170;-80
2022/03/30 02:40:36;;;;;;;36.10;13.13;;;3.20;99.90;;;;;;5044800;28;20734;-80
2022/03/30 02:43:02;;;;;;;37.17;13.03;;;3.10;99.90;;;;;;5044450;28;20180;-80
2022/03/30 02:45:27;;;;;;;39.83;12.87;;;3.20;99.90;;;;;;5044009;28;20208;-80
2022/03/30 02:50:37;;;;;;;37.87;13.27;;;3.00;99.90;;;;;;5046122;28;20200;-80
2022/03/30 02:53:03;;;;;;;42.90;12.27;;;3.00;99.90;;;;;;5043199;28;20631;-80
2022/03/30 02:55:28;;;;;;;42.93;13.70;;;3.10;99.90;;;;;;5043440;28;20170;-80
2022/03/30 02:57:54;;;;;;;35.47;12.33;;;3.00;99.90;;;;;;5044425;28;20173;-80
2022/03/30 03:00:20;;;;;;;42.03;12.23;;;2.90;99.90;;;;;;5044021;28;20237;-80
2022/03/30 03:02:46;;;;;;;37.83;12.93;;;2.90;99.90;;;;;;5044515;28;20216;-80
2022/03/30 03:05:11;;;;;;;38.77;12.70;;;2.90;99.90;;;;;;5044719;28;20342;-80
2022/03/30 03:07:37;;;;;;;38.47;12.40;;;3.00;99.90;;;;;;5043017;28;20312;-80
2022/03/30 03:10:03;;;;;;;39.77;12.53;;;2.90;99.90;;;;;;5042953;28;20213;-80
2022/03/30 03:12:29;;;;;;;35.63;12.03;;;2.80;99.90;;;;;;5043915;28;20200;-80
2022/03/30 03:14:55;;;;;;;42.20;12.83;;;2.80;99.90;;;;;;5043098;28;20641;-80
2022/03/30 03:17:20;;;;;;;36.60;13.47;;;2.80;99.90;;;;;;5044198;28;20178;-80
2022/03/30 03:19:46;;;;;;;38.77;12.90;;;2.80;99.90;;;;;;5044323;28;20258;-80
2022/03/30 03:22:12;;;;;;;35.27;13.60;;;2.90;99.90;;;;;;5044272;28;20284;-80
2022/03/30 03:24:37;;;;;;;38.43;13.53;;;3.00;99.90;;;;;;5044156;28;20251;-80
2022/03/30 03:27:03;;;;;;;37.00;12.73;;;2.90;99.90;;;;;;5043716;28;20174;-80
2022/03/30 03:29:29;;;;;;;46.87;12.63;;;2.80;99.90;;;;;;5044128;28;20193;-80
2022/03/30 03:31:55;;;;;;;37.27;12.87;;;2.80;99.90;;;;;;5045015;28;20189;-80
2022/03/30 03:34:21;;;;;;;39.03;12.60;;;2.80;99.90;;;;;;5043870;28;20281;-80
2022/03/30 03:36:47;;;;;;;36.77;12.83;;;2.80;99.90;;;;;;5044052;28;20205;-80
2022/03/30 03:39:13;;;;;;;34.77;13.07;;;2.80;99.90;;;;;;5043961;28;20212;-80
2022/03/30 03:41:38;;;;;;;38.63;12.47;;;2.80;99.90;;;;;;5042930;28;20201;-80
2022/03/30 03:44:04;;;;;;;38.13;14.03;;;2.80;99.90;;;;;;5043427;28;20180;-80
2022/03/30 03:46:30;;;;;;;38.47;13.03;;;2.80;99.90;;;;;;5043952;28;20545;-80
2022/03/30 03:48:55;;;;;;;37.70;13.67;;;2.80;99.90;;;;;;5044568;28;20194;-80
2022/03/30 03:51:21;;;;;;;32.70;12.17;;;2.80;99.90;;;;;;5044218;28;20170;-80
2022/03/30 03:53:47;;;;;;;32.87;13.17;;;2.70;99.90;;;;;;5044795;28;20177;-80
2022/03/30 03:56:13;;;;;;;32.83;13.43;;;2.70;99.90;;;;;;5043962;28;20184;-80
2022/03/30 03:58:39;;;;;;;44.87;13.63;;;2.70;99.90;;;;;;5044053;28;20204;-80
2022/03/30 04:01:04;;;;;;;41.93;13.67;;;2.80;99.90;;;;;;5043787;28;20215;-80
2022/03/30 04:03:30;;;;;;;40.00;13.63;;;2.80;99.90;;;;;;5044052;28;20177;-80
2022/03/30 04:05:56;;;;;;;38.87;13.53;;;2.80;99.90;;;;;;5044405;28;20671;-80
2022/03/30 04:08:21;;;;;;;41.33;14.47;;;2.80;99.90;;;;;;5043176;28;20170;-80
2022/03/30 04:10:48;;;;;;;38.27;14.00;;;2.80;99.90;;;;;;5044916;28;20186;-80
2022/03/30 04:13:13;;;;;;;38.00;13.60;;;2.80;99.90;;;;;;5044664;28;20596;-80
2022/03/30 04:15:39;;;;;;;42.27;13.03;;;2.80;99.90;;;;;;5043800;28;20170;-80
2022/03/30 04:18:07;;;;;;;40.53;13.43;;;2.70;99.90;;;;;;5044082;28;20272;-80
2022/03/30 04:20:33;;;;;;;48.33;15.63;;;2.60;99.90;;;;;;5045126;28;20603;-80
2022/03/30 04:22:59;;;;;;;41.37;14.40;;;2.60;99.90;;;;;;5043861;28;20220;-80
2022/03/30 04:25:25;;;;;;;40.20;14.07;;;2.60;99.90;;;;;;5044961;28;20235;-80
2022/03/30 04:27:52;;;;;;;51.80;14.63;;;2.50;99.90;;;;;;5044950;28;20209;-80
2022/03/30 04:30:20;;;;;;;39.17;12.97;;;2.50;99.90;;;;;;5045130;28;20202;-80
2022/03/30 04:32:46;;;;;;;42.90;13.83;;;2.60;99.90;;;;;;5045063;28;20170;-80
2022/03/30 04:35:14;;;;;;;45.63;14.20;;;2.50;99.90;;;;;;5048939;28;20180;-81
2022/03/30 04:37:39;;;;;;;42.30;13.93;;;2.60;99.90;;;;;;5049145;28;20178;-80
2022/03/30 04:40:07;;;;;;;43.57;13.27;;;2.60;99.90;;;;;;5039649;28;20188;-80
2022/03/30 04:42:33;;;;;;;40.03;13.77;;;2.50;99.90;;;;;;5039361;28;20215;-80
2022/03/30 04:44:59;;;;;;;45.10;13.73;;;2.60;99.90;;;;;;5039234;28;20186;-80
2022/03/30 04:47:25;;;;;;;48.87;13.87;;;2.60;99.90;;;;;;5038130;28;20205;-80
2022/03/30 04:49:50;;;;;;;50.93;14.70;;;2.50;99.90;;;;;;5038407;28;20205;-80
2022/03/30 04:52:16;;;;;;;40.97;13.43;;;2.60;99.90;;;;;;5037569;28;20268;-80
2022/03/30 04:54:42;;;;;;;38.10;13.03;;;2.50;99.90;;;;;;5037528;28;20176;-80
2022/03/30 04:57:07;;;;;;;39.00;14.33;;;2.50;99.90;;;;;;5043197;28;20210;-80
2022/03/30 04:59:33;;;;;;;43.03;14.53;;;2.40;99.90;;;;;;5044091;28;20199;-80
2022/03/30 05:01:59;;;;;;;39.60;13.30;;;2.50;99.90;;;;;;5044495;28;20209;-80
2022/03/30 05:04:25;;;;;;;50.33;14.00;;;2.60;99.90;;;;;;5044484;28;20314;-80
2022/03/30 05:06:51;;;;;;;38.70;14.33;;;2.50;99.90;;;;;;5043728;28;20180;-80
2022/03/30 05:09:16;;;;;;;44.83;13.87;;;2.50;99.90;;;;;;5043938;28;20720;-80
2022/03/30 05:11:42;;;;;;;36.90;13.03;;;2.50;99.90;;;;;;5043594;28;20191;-80
2022/03/30 05:14:08;;;;;;;41.13;13.23;;;2.50;99.90;;;;;;5043303;28;20197;-80
2022/03/30 05:16:34;;;;;;;38.00;14.57;;;2.50;99.90;;;;;;5043658;28;20673;-80
2022/03/30 05:19:01;;;;;;;43.93;13.80;;;2.60;99.90;;;;;;5043403;28;20393;-80
2022/03/30 05:21:26;;;;;;;48.47;14.47;;;2.50;99.90;;;;;;5043068;28;20299;-80
2022/03/30 05:23:52;;;;;;;35.87;14.57;;;2.50;99.90;;;;;;5044015;28;20178;-80
2022/03/30 05:26:18;;;;;;;48.30;14.13;;;2.60;99.90;;;;;;5043383;28;20190;-80
2022/03/30 05:28:44;;;;;;;40.70;13.07;;;2.60;99.90;;;;;;5043292;28;20212;-81
2022/03/30 05:31:09;;;;;;;38.83;13.93;;;2.60;99.90;;;;;;5042387;28;20180;-80
2022/03/30 05:33:36;;;;;;;38.67;13.60;;;2.60;99.90;;;;;;5042900;28;20645;-80
2022/03/30 05:36:03;;;;;;;39.50;13.73;;;2.60;99.90;;;;;;5042433;28;20250;-80
2022/03/30 05:38:29;;;;;;;54.20;15.30;;;2.60;99.90;;;;;;5043153;28;20185;-80
2022/03/30 05:40:55;;;;;;;41.20;14.30;;;2.70;99.90;;;;;;5042468;28;20178;-80
2022/03/30 05:43:21;;;;;;;42.37;14.50;;;2.70;99.90;;;;;;5043477;28;20243;-80
2022/03/30 05:45:47;;;;;;;43.43;14.63;;;2.70;99.90;;;;;;5042320;28;20266;-80
2022/03/30 05:48:13;;;;;;;46.67;14.60;;;2.80;99.90;;;;;;5047655;28;20170;-80
2022/03/30 05:50:39;;;;;;;43.20;13.67;;;2.90;99.90;;;;;;5042102;28;20193;-81
2022/03/30 05:53:06;;;;;;;43.23;14.70;;;2.80;99.90;;;;;;5041355;28;20653;-81
2022/03/30 05:55:32;;;;;;;43.60;14.40;;;2.80;99.90;;;;;;5039255;28;20222;-81
2022/03/30 05:57:58;;;;;;;43.23;14.03;;;2.90;99.90;;;;;;5038076;28;20173;-81
2022/03/30 06:00:23;;;;;;;48.00;14.87;;;2.90;99.90;;;;;;5037570;28;20740;-81
2022/03/30 06:02:49;;;;;;;42.90;14.33;;;3.00;99.90;;;;;;5037009;28;20217;-81
2022/03/30 06:05:15;;;;;;;42.70;15.30;;;3.00;99.90;;;;;;5036569;28;20205;-81
2022/03/30 06:07:41;;;;;;;46.73;14.43;;;3.20;99.90;;;;;;5035963;28;20178;-81
2022/03/30 06:10:07;;;;;;;46.07;14.47;;;3.20;99.90;;;;;;5036336;28;20347;-81
2022/03/30 06:12:33;;;;;;;48.83;14.83;;;3.20;99.90;;;;;;5035698;28;20170;-81
2022/03/30 06:14:59;;;;;;;51.97;15.33;;;3.30;99.90;;;;;;5036218;28;20177;-81
2022/03/30 06:17:26;;;;;;;38.70;15.70;;;3.30;99.90;;;;;;5036331;28;20544;-81
2022/03/30 06:19:53;;;;;;;37.73;13.97;;;3.40;99.90;;;;;;5036239;28;20202;-78
2022/03/30 06:22:19;;;;;;;41.57;15.07;;;3.40;99.90;;;;;;5035855;28;20213;-80
2022/03/30 06:24:45;;;;;;;47.03;14.97;;;3.40;99.90;;;;;;5036479;28;20205;-78
2022/03/30 06:27:12;;;;;;;40.43;15.20;;;3.40;99.90;;;;;;5035707;28;20725;-81
2022/03/30 06:29:39;;;;;;;55.07;15.17;;;3.40;99.90;;;;;;5035824;28;20601;-80
2022/03/30 06:32:06;;;;;;;38.27;14.37;;;3.40;99.90;;;;;;5034916;28;20184;-80
2022/03/30 06:34:32;;;;;;;43.07;13.73;;;3.50;99.90;;;;;;5035365;28;20716;-81
2022/03/30 06:36:58;;;;;;;42.70;14.63;;;3.70;99.90;;;;;;5036292;28;20734;-81
2022/03/30 06:39:24;;;;;;;44.63;12.97;;;4.00;99.90;;;;;;5034768;28;20201;-80
2022/03/30 06:41:49;;;;;;;40.13;12.87;;;4.20;99.90;;;;;;5034610;28;20268;-80
2022/03/30 06:44:16;;;;;;;31.63;12.23;;;4.40;99.90;;;;;;5034920;28;20542;-81
2022/03/30 06:46:43;;;;;;;38.33;12.30;;;4.50;99.90;;;;;;5035330;28;20180;-81
2022/03/30 06:49:11;;;;;;;30.87;12.23;;;4.70;99.90;;;;;;5034404;28;20198;-82
2022/03/30 06:51:37;;;;;;;33.63;12.57;;;4.80;99.90;;;;;;5034612;28;20172;-81
2022/03/30 06:54:04;;;;;;;33.53;11.77;;;5.00;99.90;;;;;;5034562;28;20172;-82
2022/03/30 06:56:31;;;;;;;40.27;12.37;;;5.30;99.90;;;;;;5038094;28;20238;-82
2022/03/30 06:58:56;;;;;;;30.00;11.03;;;5.70;99.90;;;;;;5038754;28;20208;-82
2022/03/30 07:01:22;;;;;;;27.90;10.30;;;5.60;99.90;;;;;;5040570;28;20200;-83
2022/03/30 07:03:47;;;;;;;25.37;11.50;;;5.60;99.90;;;;;;5039511;28;20173;-82
2022/03/30 07:06:13;;;;;;;27.57;11.20;;;6.10;99.90;;;;;;5040051;28;20173;-82
2022/03/30 07:11:23;;;;;;;25.43;9.80;;;6.20;99.90;;;;;;5040236;28;20192;-82
2022/03/30 07:13:50;;;;;;;23.77;10.03;;;6.30;99.90;;;;;;5038902;28;20180;-82
2022/03/30 07:16:16;;;;;;;23.37;9.63;;;6.60;99.90;;;;;;5038554;28;20189;-82
2022/03/30 07:18:42;;;;;;;23.57;9.40;;;6.20;99.90;;;;;;5039080;28;20194;-80
2022/03/30 07:21:07;;;;;;;22.97;10.07;;;6.30;99.90;;;;;;5037821;28;20196;-81
2022/03/30 07:23:33;;;;;;;22.13;8.93;;;6.60;99.90;;;;;;5038045;28;20185;-80
2022/03/30 07:26:00;;;;;;;26.13;9.20;;;6.70;99.90;;;;;;5037698;28;20647;-82
2022/03/30 07:28:26;;;;;;;26.60;9.23;;;7.30;99.90;;;;;;5036009;28;20181;-82
2022/03/30 07:30:53;;;;;;;21.30;8.00;;;7.70;99.90;;;;;;5035639;28;20192;-82
2022/03/30 07:33:20;;;;;;;21.23;7.43;;;7.60;99.90;;;;;;5036741;28;20175;-82
2022/03/30 07:35:46;;;;;;;17.63;8.10;;;7.00;99.90;;;;;;5037864;28;20243;-81
2022/03/30 07:38:17;;;;;;;18.97;7.83;;;7.10;99.90;;;;;;5036295;28;20615;-84
2022/03/30 07:40:45;;;;;;;21.90;7.80;;;8.20;99.90;;;;;;5037925;28;20207;-81
2022/03/30 07:43:12;;;;;;;21.67;8.27;;;8.70;99.90;;;;;;5038357;28;20528;-81
2022/03/30 07:45:38;;;;;;;21.53;7.20;;;8.60;99.90;;;;;;5037593;28;20233;-82
2022/03/30 07:48:04;;;;;;;16.67;6.77;;;9.10;99.90;;;;;;5038400;28;20168;-82
2022/03/30 07:50:30;;;;;;;20.03;7.20;;;9.20;99.90;;;;;;5039860;28;20196;-81
2022/03/30 07:52:56;;;;;;;16.53;7.47;;;8.90;99.90;;;;;;5041443;28;20657;-81
2022/03/30 07:55:23;;;;;;;19.80;6.83;;;8.80;99.90;;;;;;5040525;28;20186;-81
2022/03/30 07:57:48;;;;;;;14.10;5.93;;;8.60;99.90;;;;;;5040076;28;20184;-81
2022/03/30 08:00:17;;;;;;;13.20;6.17;;;8.60;99.90;;;;;;5039833;28;20197;-80
2022/03/30 08:02:47;;;;;;;17.10;6.77;;;8.60;99.90;;;;;;5040322;28;20205;-81
2022/03/30 08:05:13;;;;;;;16.63;6.87;;;9.30;99.90;;;;;;5040134;28;20177;-81
2022/03/30 08:07:44;;;;;;;22.17;7.03;;;10.30;99.90;;;;;;5040151;28;20170;-80
2022/03/30 08:10:11;;;;;;;22.03;6.97;;;10.30;99.70;;;;;;5039185;28;20333;-79
2022/03/30 08:12:38;;;;;;;20.20;6.97;;;9.60;98.00;;;;;;5042771;28;20201;-81
2022/03/30 08:15:04;;;;;;;17.13;6.87;;;9.90;99.90;;;;;;5042715;28;20299;-81
2022/03/30 08:17:30;;;;;;;13.93;5.40;;;10.50;99.00;;;;;;5041495;28;20245;-81
2022/03/30 08:19:57;;;;;;;13.63;5.93;;;10.70;98.10;;;;;;5042034;28;20247;-81
2022/03/30 08:22:26;;;;;;;16.17;6.13;;;10.90;97.70;;;;;;5043589;28;20712;-81
2022/03/30 08:25:07;;;;;;;15.80;6.50;;;10.50;96.90;;;;;;5041460;28;20188;-81
2022/03/30 08:27:34;;;;;;;14.20;6.40;;;10.10;95.80;;;;;;5036482;28;20174;-81
2022/03/30 08:30:00;;;;;;;18.97;5.83;;;9.60;98.00;;;;;;5037670;28;20288;-80
2022/03/30 08:32:26;;;;;;;15.97;5.57;;;10.30;96.20;;;;;;5057011;28;20182;-80
2022/03/30 08:34:54;;;;;;;16.37;6.00;;;10.70;96.30;;;;;;5059442;28;20553;-80
2022/03/30 08:37:20;;;;;;;21.30;6.40;;;11.40;95.30;;;;;;5060813;28;20173;-81
2022/03/30 08:39:46;;;;;;;13.23;6.10;;;10.30;95.30;;;;;;5059390;28;20193;-81
2022/03/30 08:42:13;;;;;;;18.73;6.33;;;10.00;95.50;;;;;;5061833;28;20212;-81
2022/03/30 08:44:41;;;;;;;16.47;5.90;;;11.00;95.20;;;;;;5060546;28;20545;-80
2022/03/30 08:47:08;;;;;;;18.63;6.80;;;11.20;94.50;;;;;;5059285;28;20215;-79
2022/03/30 08:49:35;;;;;;;31.23;6.73;;;10.40;94.60;;;;;;5059795;28;20208;-79
2022/03/30 08:52:06;;;;;;;18.17;7.40;;;10.90;94.90;;;;;;5055082;28;20169;-79
2022/03/30 08:54:32;;;;;;;23.77;7.27;;;11.10;94.70;;;;;;5056919;28;20174;-80
2022/03/30 08:56:58;;;;;;;17.80;6.73;;;11.30;94.90;;;;;;5059155;28;20181;-81
2022/03/30 08:59:24;;;;;;;21.47;6.73;;;11.80;92.50;;;;;;5058908;28;20284;-81
2022/03/30 09:01:53;;;;;;;18.73;6.60;;;11.80;93.60;;;;;;5057071;28;20243;-80
2022/03/30 09:04:19;;;;;;;17.13;6.70;;;11.20;93.00;;;;;;5056930;28;20170;-81
2022/03/30 09:06:52;;;;;;;19.00;6.70;;;10.80;93.70;;;;;;5054893;28;20166;-81
2022/03/30 09:09:44;;;;;;;22.30;7.33;;;11.30;93.70;;;;;;5053428;28;20185;-82
2022/03/30 09:12:11;;;;;;;19.97;6.80;;;10.80;92.40;;;;;;5051727;28;20186;-82
2022/03/30 09:14:39;;;;;;;18.50;6.77;;;10.90;94.20;;;;;;5058818;28;20170;-81
2022/03/30 09:17:07;;;;;;;15.87;6.37;;;12.40;92.20;;;;;;5058812;28;20547;-81
2022/03/30 09:19:39;;;;;;;14.30;6.00;;;12.60;92.10;;;;;;5056267;28;20199;-82
2022/03/30 09:22:06;;;;;;;16.37;6.10;;;12.10;89.80;;;;;;5052206;28;20208;-82
2022/03/30 09:24:35;;;;;;;16.53;6.40;;;11.80;92.10;;;;;;5052858;28;20219;-82
2022/03/30 09:27:03;;;;;;;20.77;6.50;;;11.20;91.90;;;;;;5052048;28;20189;-82
2022/03/30 09:29:31;;;;;;;22.50;6.93;;;11.20;92.40;;;;;;5052155;28;20219;-82
2022/03/30 09:32:01;;;;;;;25.50;7.37;;;10.30;93.50;;;;;;5055448;28;20260;-82
2022/03/30 09:34:33;;;;;;;20.27;7.80;;;11.90;92.10;;;;;;5057320;28;20169;-82
2022/03/30 09:36:59;;;;;;;21.73;6.90;;;12.10;92.60;;;;;;5058817;28;20319;-82
2022/03/30 09:39:32;;;;;;;17.20;7.40;;;12.20;90.90;;;;;;5059309;28;20196;-82
2022/03/30 09:41:59;;;;;;;19.53;6.73;;;12.80;91.80;;;;;;5057228;28;20677;-81
2022/03/30 09:44:29;;;;;;;17.63;6.63;;;11.70;91.10;;;;;;5054298;28;20510;-81
2022/03/30 09:47:06;;;;;;;19.37;7.07;;;11.60;91.20;;;;;;5055846;28;20219;-82
2022/03/30 09:49:44;;;;;;;20.73;6.83;;;11.70;93.00;;;;;;5057888;28;20663;-82
2022/03/30 09:52:17;;;;;;;17.83;7.23;;;12.60;91.90;;;;;;5058830;28;20177;-82
2022/03/30 09:54:53;;;;;;;16.27;6.47;;;12.00;91.70;;;;;;5041415;28;20178;-82
2022/03/30 09:57:34;;;;;;;10.93;5.53;;;12.00;91.60;;;;;;5031544;28;20187;-82
2022/03/30 10:00:14;;;;;;;11.07;5.43;;;10.30;93.80;;;;;;5031905;28;20209;-82
2022/03/30 10:02:51;;;;;;;14.80;6.37;;;11.40;92.60;;;;;;5032795;28;20559;-82
2022/03/30 10:05:19;;;;;;;12.70;6.30;;;12.60;90.90;;;;;;5034200;28;20180;-82
2022/03/30 10:07:45;;;;;;;18.87;6.50;;;11.70;92.60;;;;;;5030985;28;20170;-81
2022/03/30 10:10:13;;;;;;;17.57;5.87;;;12.60;91.30;;;;;;5032151;28;20259;-82
2022/03/30 10:12:39;;;;;;;19.27;5.97;;;12.30;91.60;;;;;;5033290;28;20178;-81
2022/03/30 10:15:07;;;;;;;17.93;6.27;;;12.70;90.30;;;;;;5031515;28;20170;-81
2022/03/30 10:17:33;;;;;;;18.37;6.20;;;12.90;90.40;;;;;;5031723;28;20185;-81
2022/03/30 10:20:01;;;;;;;18.40;6.40;;;13.40;90.20;;;;;;5032918;28;20194;-82
2022/03/30 10:22:49;;;;;;;11.27;5.73;;;13.80;90.10;;;;;;5033091;28;20221;-82
2022/03/30 10:25:23;;;;;;;10.33;5.70;;;13.60;87.80;;;;;;5032384;28;20174;-82
2022/03/30 10:28:08;;;;;;;16.80;5.90;;;13.50;88.70;;;;;;5032066;28;20193;-82
2022/03/30 10:30:35;;;;;;;17.13;6.17;;;13.40;87.80;;;;;;5032350;28;20194;-82
2022/03/30 10:33:03;;;;;;;17.60;6.43;;;11.90;90.60;;;;;;5032068;28;20182;-82
2022/03/30 10:35:46;;;;;;;15.47;6.30;;;12.10;91.60;;;;;;5036407;28;20653;-82
2022/03/30 10:38:13;;;;;;;12.43;5.43;;;13.20;87.20;;;;;;5036013;28;20220;-82
2022/03/30 10:40:40;;;;;;;10.27;5.63;;;12.10;90.30;;;;;;5035670;28;20247;-82
2022/03/30 10:43:26;;;;;;;9.40;4.97;;;11.80;90.80;;;;;;5037601;28;20202;-82
2022/03/30 10:45:58;;;;;;;10.87;5.63;;;12.60;87.90;;;;;;5036259;28;20178;-81
2022/03/30 10:48:34;;;;;;;11.53;5.93;;;11.80;90.20;;;;;;5036773;28;20173;-82
2022/03/30 10:51:13;;;;;;;19.03;6.60;;;12.70;89.20;;;;;;5036546;28;20167;-82
2022/03/30 10:53:44;;;;;;;12.60;6.03;;;14.00;88.30;;;;;;5036512;28;20182;-82
2022/03/30 10:56:15;;;;;;;12.33;6.50;;;13.90;87.10;;;;;;5036329;28;20174;-82
2022/03/30 10:58:53;;;;;;;17.10;6.10;;;13.30;88.60;;;;;;5036324;28;20658;-82
2022/03/30 11:01:18;;;;;;;11.57;5.50;;;13.40;87.70;;;;;;5036226;28;20539;-82
2022/03/30 11:03:59;;;;;;;11.83;6.10;;;12.80;87.30;;;;;;5036830;28;20181;-82
2022/03/30 11:06:26;;;;;;;10.60;5.07;;;13.40;88.80;;;;;;5036022;28;20694;-81
2022/03/30 11:08:58;;;;;;;14.93;5.80;;;13.60;83.90;;;;;;5039250;28;20201;-81
2022/03/30 11:11:26;;;;;;;7.67;4.60;;;13.50;84.60;;;;;;5039442;28;20236;-80
2022/03/30 11:14:23;;;;;;;10.77;5.47;;;13.20;86.30;;;;;;5039223;28;20178;-81
2022/03/30 11:16:51;;;;;;;12.87;6.77;;;14.00;86.00;;;;;;5038675;28;20550;-82
2022/03/30 11:19:17;;;;;;;10.37;5.50;;;14.30;84.40;;;;;;5038309;28;20281;-82
2022/03/30 11:22:01;;;;;;;11.03;5.03;;;13.40;84.30;;;;;;5037800;28;20291;-83
2022/03/30 11:24:30;;;;;;;13.70;5.80;;;12.60;84.90;;;;;;5038587;28;20637;-82
2022/03/30 11:26:59;;;;;;;13.03;5.80;;;12.00;89.30;;;;;;5038576;28;20181;-82
2022/03/30 11:29:49;;;;;;;11.67;5.20;;;13.00;87.50;;;;;;5039643;28;20197;-82
2022/03/30 11:32:32;;;;;;;14.30;6.00;;;13.40;85.50;;;;;;5040157;28;20179;-82
2022/03/30 11:34:59;;;;;;;15.50;6.30;;;12.20;87.20;;;;;;5038836;28;20176;-81
2022/03/30 11:37:26;;;;;;;12.00;6.37;;;12.50;88.40;;;;;;5036438;28;20517;-81
2022/03/30 11:40:03;;;;;;;11.17;6.27;;;12.50;88.00;;;;;;5033839;28;20284;-82
2022/03/30 11:42:29;;;;;;;16.63;6.23;;;14.40;83.80;;;;;;5034388;28;20198;-81
2022/03/30 11:45:12;;;;;;;16.17;5.53;;;15.40;79.00;;;;;;5033704;28;20528;-82
2022/03/30 11:47:43;;;;;;;12.97;5.50;;;13.80;80.60;;;;;;5035787;28;20166;-81
2022/03/30 11:50:10;;;;;;;16.57;6.13;;;12.40;87.50;;;;;;5033638;28;20186;-82
2022/03/30 11:52:35;;;;;;;12.07;6.70;;;13.80;85.10;;;;;;5034622;28;20174;-81
2022/03/30 11:55:01;;;;;;;16.00;6.33;;;13.50;83.40;;;;;;5034610;28;20174;-82
2022/03/30 11:57:27;;;;;;;17.20;5.70;;;12.80;83.00;;;;;;5037584;28;20543;-81
2022/03/30 12:00:00;;;;;;;12.53;5.50;;;11.30;86.10;;;;;;5038650;28;20613;-82
2022/03/30 12:02:27;;;;;;;10.43;5.90;;;11.70;87.10;;;;;;5034996;28;20566;-80
2022/03/30 12:04:54;;;;;;;11.83;5.47;;;13.20;84.60;;;;;;5033495;28;20180;-82
2022/03/30 12:07:20;;;;;;;27.33;6.40;;;13.60;82.10;;;;;;5033809;28;20170;-80
2022/03/30 12:09:53;;;;;;;15.23;5.23;;;12.50;87.00;;;;;;5033101;28;20198;-80
2022/03/30 12:12:37;;;;;;;13.10;5.37;;;12.40;83.30;;;;;;5032758;28;20605;-81
2022/03/30 12:15:17;;;;;;;14.53;5.87;;;12.50;85.50;;;;;;5032949;28;20178;-80
2022/03/30 12:17:56;;;;;;;15.73;5.50;;;12.40;84.70;;;;;;5032842;28;20177;-81
2022/03/30 12:20:33;;;;;;;12.93;5.63;;;12.80;85.70;;;;;;5039918;28;20212;-81
2022/03/30 12:23:07;;;;;;;9.57;5.27;;;11.30;87.90;;;;;;5040931;28;20208;-80
2022/03/30 12:25:42;;;;;;;16.90;6.20;;;10.80;89.60;;;;;;5043310;28;20244;-81
2022/03/30 12:28:07;;;;;;;20.20;6.23;;;11.20;89.20;;;;;;5043297;28;20630;-80
2022/03/30 12:30:37;;;;;;;12.13;5.57;;;11.10;89.50;;;;;;5044332;28;20247;-80
2022/03/30 12:33:03;;;;;;;10.30;5.40;;;11.90;87.20;;;;;;5044315;28;20267;-80
2022/03/30 12:35:33;;;;;;;13.40;5.90;;;11.60;86.20;;;;;;5042835;28;20174;-80
2022/03/30 12:38:11;;;;;;;10.27;6.00;;;11.60;90.10;;;;;;5046908;28;20175;-80
2022/03/30 12:40:41;;;;;;;13.67;6.20;;;12.30;88.30;;;;;;5039820;28;20192;-80
2022/03/30 12:43:07;;;;;;;16.30;5.50;;;12.40;88.90;;;;;;5033712;28;20192;-80
2022/03/30 12:45:53;;;;;;;14.13;5.30;;;12.50;87.30;;;;;;5035753;28;20175;-79
2022/03/30 12:48:26;;;;;;;11.20;5.77;;;13.00;87.90;;;;;;5041474;28;20168;-80
2022/03/30 12:50:52;;;;;;;10.23;5.20;;;11.70;86.20;;;;;;5038998;28;20176;-79
2022/03/30 12:53:18;;;;;;;11.17;5.07;;;11.00;88.10;;;;;;5035977;28;20276;-79